Aureola, Iowa
Current Conditions -  °F | °C
As of 8:15 PM on Friday 24 Oct 2014 (Local Time) from KCCY Reporting Station
Moderate Fog Moderate Fog  
Wind Chill: 59°   Ceiling: 200
Heat Index: 59°   Visibility: 0mi
Dew Point: 59°   Wind: 7mph
Humidity: 100%   Direction: 200°SSW
Pressure: 29.92"   Gusts: NA
Location:  42.9618°N, 92.9184°W
Report Text: KCCY 250115Z AUTO 20006KT M1/4SM FG OVC002 15/15 A2992 RMK AO2
Loading
Personal Weather Stations






























Interactive Weather Map
Tropical Storm Tracking
New forecast layout! Learn more

10-Day Weather Forecast

Advertisements
Track Severe Weather on mobile